Flight Track Log - Related Links

Times and Time Zones

All times are in EDT time to prevent confusion due to time zone crossing. See the N1926A flight status page for this flight to view local times or setup timezone preferences in your user account.

Time Position Orientation Groundspeed Altitude Reporting Facility
EDT Latitude Longitude Course Direction KTS MPH feet Rate Location/Type
Thu 01:30:34 PM 32.8000 -97.3500 180° South 152 175 1,200  Level Dallas / Fort Worth TRACON
Thu 01:31:52 PM 32.7500 -97.3500 180° South 158 182 3,700 1,273 Climbing Dallas / Fort Worth TRACON
Thu 01:32:46 PM 32.7167 -97.3167 140° Southeast 200 230 4,000 167 Climbing Dallas / Fort Worth TRACON
Thu 01:33:40 PM 32.6667 -97.2667 140° Southeast 217 250 4,000  Level Dallas / Fort Worth TRACON
Thu 01:34:46 PM 32.6167 -97.2167 140° Southeast 222 255 4,000  Level Dallas / Fort Worth TRACON
Thu 01:35:46 PM 32.6167 -97.1333 88° East 230 265 4,000  Level Dallas / Fort Worth TRACON
Thu 01:36:00 PM 32.6207 -97.1024 88° East  Level Estimated
Thu 01:36:40 PM 32.6167 -97.0667 90° East 227 261 4,000  Level Dallas / Fort Worth TRACON
Thu 01:37:52 PM 32.6167 -96.9833 90° East 227 261 4,000 516 Level Dallas / Fort Worth TRACON
Thu 01:39:46 PM 32.6333 -96.8500 82° East 206 237 5,600 1,276 Climbing Dallas / Fort Worth TRACON
Thu 01:40:46 PM 32.6500 -96.8000 68° East 165 190 7,700 1,900 Climbing Dallas / Fort Worth TRACON
Thu 01:41:46 PM 32.6500 -96.7333 90° East 176 203 9,400 1,211 Climbing Dallas / Fort Worth TRACON
Thu 01:42:40 PM 32.6833 -96.6833 52° Northeast 226 260 10,000 316 Climbing Dallas / Fort Worth TRACON
Thu 01:43:00 PM 32.6419 -96.4538 88° East  Level Estimated
Thu 01:43:40 PM 32.7167 -96.6167 59° Northeast 275 316 10,000  Level Dallas / Fort Worth TRACON
Thu 01:44:25 PM 32.7492 -96.5611 55° Northeast 285 328 9,900 -57 Descending Fort Worth Center
Thu 01:45:25 PM 32.7903 -96.4867 57° Northeast 288 331 9,900  Level Fort Worth Center
Thu 01:46:25 PM 32.8294 -96.4097 59° Northeast 273 314 9,900  Level Fort Worth Center
Thu 01:47:25 PM 32.8725 -96.3325 56° Northeast 273 314 9,900 50 Level Fort Worth Center
Thu 01:48:25 PM 32.8844 -96.2483 80° East 263 303 10,000 300 Climbing Fort Worth Center
Thu 01:49:25 PM 32.8794 -96.1617 94° East 256 295 10,500 550 Climbing Fort Worth Center
Thu 01:50:25 PM 32.8744 -96.0778 94° East 256 295 11,100 650 Climbing Fort Worth Center
Thu 01:51:25 PM 32.8714 -95.9961 93° East 256 295 11,800 450 Climbing Fort Worth Center
Thu 01:52:25 PM 32.8683 -95.9097 92° East 256 295 12,000 100 Climbing Fort Worth Center
Thu 01:53:25 PM 32.8672 -95.8231 91° East 256 295 12,000 800 Level Fort Worth Center
Thu 01:54:25 PM 32.8725 -95.7389 86° East 262 302 13,600 1,300 Climbing Fort Worth Center
Thu 01:55:25 PM 32.8756 -95.6622 87° East 235 270 14,600 700 Climbing Fort Worth Center
Thu 01:56:25 PM 32.8764 -95.5856 89° East 222 255 15,000 950 Climbing Fort Worth Center
Thu 01:57:25 PM 32.8794 -95.5086 87° East 228 262 16,500 1,450 Climbing Fort Worth Center
Thu 01:58:25 PM 32.8783 -95.4394 91° East 223 257 17,900 1,400 Climbing Fort Worth Center
Thu 01:59:25 PM 32.8775 -95.3703 91° East 211 243 19,300 1,250 Climbing Fort Worth Center
Thu 02:00:25 PM 32.8783 -95.2961 89° East 216 249 20,400 1,150 Climbing Fort Worth Center
Thu 02:01:25 PM 32.8750 -95.2219 93° East 226 260 21,600 1,100 Climbing Fort Worth Center
Thu 02:02:25 PM 32.8756 -95.1453 89° East 232 267 22,600 1,100 Climbing Fort Worth Center
Thu 02:03:25 PM 32.8783 -95.0658 88° East 237 273 23,800 700 Climbing Fort Worth Center
Thu 02:04:25 PM 32.8789 -94.9794 90° East 237 273 24,000 100 Climbing Fort Worth Center
Thu 02:05:25 PM 32.8811 -94.8853 88° East 259 298 24,000 150 Level Fort Worth Center
Thu 02:06:25 PM 32.8811 -94.7839 90° East 280 322 24,300 600 Climbing Fort Worth Center
Thu 02:07:25 PM 32.8811 -94.6875 90° East 287 330 25,200 1,000 Climbing Fort Worth Center
Thu 02:08:25 PM 32.8792 -94.5983 91° East 282 325 26,300 800 Climbing Fort Worth Center
Thu 02:09:25 PM 32.8772 -94.5119 92° East 270 311 26,800 350 Climbing Fort Worth Center
Thu 02:10:25 PM 32.8728 -94.4181 93° East 270 311 27,000 100 Climbing Fort Worth Center
Thu 02:11:25 PM 32.8706 -94.3217 92° East 283 326 27,000  Level Fort Worth Center
Thu 02:12:25 PM 32.8700 -94.2178 90° East 295 339 27,000  Level Fort Worth Center
Thu 02:13:25 PM 32.8717 -94.1164 89° East 300 345 27,000  Level Fort Worth Center
Thu 02:14:25 PM 32.8706 -94.0003 91° East 314 361 27,000  Level Fort Worth Center
Thu 02:15:25 PM 32.8719 -93.8964 89° East 314 361 27,000  Level Fort Worth Center
Thu 02:16:25 PM 32.8731 -93.7900 89° East 319 367 27,000  Level Fort Worth Center
Thu 02:17:25 PM 32.8722 -93.6861 91° East 319 367 27,000  Level Fort Worth Center
Thu 02:18:25 PM 32.8689 -93.5822 92° East 314 361 27,000  Level Fort Worth Center
Thu 02:19:25 PM 32.8658 -93.4761 92° East 314 361 27,000  Level Fort Worth Center
Thu 02:20:25 PM 32.8667 -93.3697 89° East 314 361 27,000  Level Fort Worth Center
Thu 02:21:25 PM 32.8653 -93.2658 91° East 309 356 27,000  Level Fort Worth Center
Thu 02:22:25 PM 32.8619 -93.1647 92° East 309 356 27,000  Level Fort Worth Center
Thu 02:23:25 PM 32.8603 -93.0608 91° East 309 356 27,000  Level Fort Worth Center
Thu 02:24:25 PM 32.8611 -92.9594 89° East 309 356 27,000  Level Fort Worth Center
Thu 02:25:25 PM 32.8575 -92.8583 92° East 309 356 27,000  Level Fort Worth Center
Thu 02:26:25 PM 32.8556 -92.7519 91° East 309 356 27,000  Level Fort Worth Center
Thu 02:28:32 PM 32.8469 -92.5481 93° East 309 356 27,000  Level Memphis Center
Thu 02:29:32 PM 32.8467 -92.4442 90° East 309 356 27,000  Level Memphis Center
Thu 02:30:32 PM 32.8464 -92.3406 90° East 309 356 27,000  Level Memphis Center
Thu 02:31:32 PM 32.8417 -92.2364 93° East 309 356 27,000  Level Memphis Center
Thu 02:32:32 PM 32.8347 -92.1350 95° East 309 356 27,000  Level Memphis Center
Thu 02:33:32 PM 32.8278 -92.0333 95° East 309 356 27,000  Level Memphis Center
Thu 02:34:32 PM 32.8250 -91.9247 92° East 315 362 27,000  Level Memphis Center
Thu 02:35:32 PM 32.8242 -91.8233 91° East 315 362 27,000  Level Memphis Center
Thu 02:36:32 PM 32.8211 -91.7169 92° East 309 356 27,000  Level Memphis Center
Thu 02:37:32 PM 32.8222 -91.6156 89° East 309 356 27,000  Level Memphis Center
Thu 02:38:32 PM 32.8211 -91.5117 91° East 309 356 27,000  Level Memphis Center
Thu 02:39:32 PM 32.8178 -91.4103 92° East 309 356 27,000  Level Memphis Center
Thu 02:40:32 PM 32.8125 -91.3089 94° East 309 356 27,000  Level Memphis Center
Thu 02:41:32 PM 32.8069 -91.2025 94° East 309 356 27,000  Level Memphis Center
Thu 02:42:32 PM 32.8033 -91.0989 92° East 314 361 27,000  Level Memphis Center
Thu 02:43:32 PM 32.7997 -90.9950 92° East 309 356 27,000  Level Memphis Center
Thu 02:44:32 PM 32.7961 -90.8936 92° East 309 356 27,000  Level Memphis Center
Thu 02:45:32 PM 32.7944 -90.7897 91° East 314 361 27,000  Level Memphis Center
Thu 02:46:32 PM 32.7883 -90.6883 94° East 309 356 27,000  Level Memphis Center
Thu 02:47:32 PM 32.7844 -90.5722 92° East 314 361 27,000  Level Memphis Center
Thu 02:48:32 PM 32.7825 -90.4686 91° East 314 361 27,000  Level Memphis Center
Thu 02:49:32 PM 32.7783 -90.3672 93° East 309 356 27,000  Level Memphis Center
Thu 02:50:32 PM 32.7742 -90.2608 93° East 309 356 27,000  Level Memphis Center
Thu 02:51:32 PM 32.7700 -90.1597 93° East 309 356 27,000  Level Memphis Center
Thu 02:52:32 PM 32.7656 -90.0558 93° East 309 356 27,000  Level Memphis Center
Thu 02:53:32 PM 32.7589 -89.9522 94° East 309 356 27,000  Level Memphis Center
Thu 02:54:32 PM 32.7564 -89.8483 92° East 309 356 27,000  Level Memphis Center
Thu 02:55:32 PM 32.7497 -89.7447 94° East 309 356 27,000  Level Memphis Center
Thu 02:56:32 PM 32.7472 -89.6508 92° East 309 356 27,000  Level Memphis Center
Thu 02:57:32 PM 32.7422 -89.5472 93° East 309 356 27,000  Level Memphis Center
Thu 02:58:32 PM 32.7394 -89.4483 92° East 309 356 27,000  Level Memphis Center
Thu 02:59:32 PM 32.7325 -89.3422 94° East 309 356 27,000  Level Memphis Center
Thu 03:00:32 PM 32.7294 -89.2411 92° East 309 356 27,000  Level Memphis Center
Thu 03:01:32 PM 32.7203 -89.1375 96° East 309 356 27,000  Level Memphis Center
Thu 03:02:32 PM 32.7169 -89.0364 92° East 309 356 27,000  Level Memphis Center
Thu 03:03:32 PM 32.7117 -88.9350 94° East 309 356 27,000 -150 Level Memphis Center
Thu 03:04:32 PM 32.7064 -88.8317 93° East 309 356 26,700 -300 Descending Memphis Center
Thu 03:05:32 PM 32.7008 -88.7256 94° East 309 356 26,400 -200 Descending Memphis Center
Thu 03:06:32 PM 32.6972 -88.6194 92° East 309 356 26,300 -150 Descending Memphis Center
Thu 03:07:32 PM 32.6917 -88.5108 93° East 315 362 26,100 -294 Descending Memphis Center
Thu 03:09:56 PM 32.6725 -88.2486 95° East 316 364 25,300 -324 Descending Atlanta Center
Thu 03:10:56 PM 32.6636 -88.1394 95° East 327 376 25,000 -150 Descending Atlanta Center
Thu 03:11:56 PM 32.6567 -88.0331 94° East 327 376 25,000  Level Atlanta Center
Thu 03:12:56 PM 32.6478 -87.9217 95° East 333 383 25,000  Level Atlanta Center
Thu 03:13:56 PM 32.6447 -87.8181 92° East 327 376 25,000 -150 Level Atlanta Center
Thu 03:14:56 PM 32.6394 -87.7117 93° East 321 369 24,700 -400 Descending Atlanta Center
Thu 03:15:56 PM 32.6364 -87.6056 92° East 321 369 24,200 -650 Descending Atlanta Center
Thu 03:16:56 PM 32.6311 -87.4942 93° East 326 375 23,400 -1,250 Descending Atlanta Center
Thu 03:17:56 PM 32.6242 -87.3756 94° East 338 389 21,700 -1,500 Descending Atlanta Center
Thu 03:18:56 PM 32.6189 -87.2594 93° East 350 403 20,400 -1,350 Descending Atlanta Center
Thu 03:19:56 PM 32.6133 -87.1458 93° East 350 403 19,000 -1,500 Descending Atlanta Center
Thu 03:20:56 PM 32.6078 -87.0297 93° East 350 403 17,400 -1,650 Descending Atlanta Center
Thu 03:21:56 PM 32.6003 -86.9161 94° East 350 403 15,700 -1,600 Descending Atlanta Center
Thu 03:22:56 PM 32.5922 -86.8025 95° East 350 403 14,200 -1,600 Descending Atlanta Center
Thu 03:23:56 PM 32.5822 -86.6936 96° East 339 390 12,500 -1,850 Descending Atlanta Center
Thu 03:24:56 PM 32.5739 -86.5900 95° East 332 382 10,500 -1,950 Descending Atlanta Center
Thu 03:25:56 PM 32.5617 -86.4811 98° East 332 382 8,600 -1,500 Descending Atlanta Center
Thu 03:26:56 PM 32.5531 -86.3825 96° East 327 376 7,500 -1,000 Descending Atlanta Center
Thu 03:27:56 PM 32.5403 -86.2858 99° East 307 353 6,600 -900 Descending Atlanta Center
Thu 03:29:00 PM 32.5353 -86.1874 93° East  Level FlightAware Approximate
Thu 03:36:00 PM 32.5149 -85.8762 103° East  Level Estimated
Thu 03:37:00 PM 32.5149 -85.8762 103° East  Level Estimated
Thu 03:38:00 PM 32.5149 -85.8762 103° East  Level Estimated
Thu 03:39:00 PM 32.5149 -85.8762 103° East  Level Estimated
Thu 03:40:00 PM 32.5149 -85.8762 103° East  Level Estimated
Thu 03:41:00 PM 32.5149 -85.8762 103° East  Level Estimated
Thu 03:42:00 PM 32.5149 -85.8762 103° East  Level Estimated
Thu 03:43:00 PM 32.5149 -85.8762 103° East  Level Estimated

Login

Don't have an account? Register now (free) for customized features, flight alerts, and more!